Time;durP1;ratioP1;P1;durP2;ratioP2;P2;SDS_P1;SDS_P2;PMS_P1;PMS_P2;Temp;Humidity;BMP_temperature;BMP_pressure;BME280_temperature;BME280_humidity;BME280_pressure;Samples;Min_cycle;Max_cycle;Signal;HPM_P1;HPM_P2
2021/05/31 00:00:48;;;;;;;0.60;0.38;;;21.60;64.00;;;;;;4943538;28;20058;-71
2021/05/31 00:03:16;;;;;;;0.70;0.25;;;21.60;63.20;;;;;;4943248;28;20767;-70
2021/05/31 00:05:43;;;;;;;5.57;0.60;;;21.50;63.50;;;;;;4942518;28;20046;-70
2021/05/31 00:08:10;;;;;;;1.85;0.55;;;21.70;62.90;;;;;;4940635;28;20035;-71
2021/05/31 00:10:38;;;;;;;1.27;0.52;;;21.70;65.50;;;;;;4943791;28;20545;-69
2021/05/31 00:13:06;;;;;;;1.25;0.40;;;21.90;63.30;;;;;;4941490;28;20116;-70
2021/05/31 00:15:33;;;;;;;1.27;0.40;;;21.90;62.90;;;;;;4925503;29;20028;-70
2021/05/31 00:18:01;;;;;;;0.40;0.30;;;22.30;63.50;;;;;;4942194;28;20032;-72
2021/05/31 00:20:29;;;;;;;0.93;0.60;;;22.70;61.40;;;;;;4947095;28;20533;-73
2021/05/31 00:22:56;;;;;;;3.60;0.95;;;23.00;59.10;;;;;;4944687;29;20474;-70
2021/05/31 00:25:25;;;;;;;1.70;0.20;;;23.40;60.30;;;;;;4942037;29;20035;-71
2021/05/31 00:27:52;;;;;;;2.33;0.30;;;23.50;59.10;;;;;;4946090;28;20039;-72
2021/05/31 00:30:23;;;;;;;0.70;0.43;;;23.60;59.00;;;;;;4949520;29;20043;-73
2021/05/31 00:32:51;;;;;;;1.30;0.32;;;23.60;60.50;;;;;;4948125;28;20031;-73
2021/05/31 00:35:19;;;;;;;1.33;0.43;;;24.00;57.60;;;;;;4945828;29;20027;-75
2021/05/31 00:37:47;;;;;;;2.42;0.40;;;23.80;57.10;;;;;;4944671;29;20038;-74
2021/05/31 00:40:15;;;;;;;1.42;0.77;;;23.80;57.70;;;;;;4946700;29;20028;-72
2021/05/31 00:42:43;;;;;;;2.20;0.45;;;23.60;59.20;;;;;;4945215;29;20039;-72
2021/05/31 00:45:11;;;;;;;2.28;0.50;;;24.10;55.70;;;;;;4945200;28;20432;-72
2021/05/31 00:47:38;;;;;;;1.40;0.60;;;23.90;56.70;;;;;;4944724;29;20468;-73
2021/05/31 00:50:07;;;;;;;2.08;0.40;;;24.40;55.40;;;;;;4940931;28;20070;-72
2021/05/31 00:52:35;;;;;;;1.63;0.57;;;24.70;56.00;;;;;;4941159;29;20024;-72
2021/05/31 00:55:02;;;;;;;4.20;0.85;;;24.80;54.20;;;;;;4944578;29;20086;-72
2021/05/31 00:57:30;;;;;;;2.25;0.40;;;25.10;55.50;;;;;;4945549;29;20027;-73
2021/05/31 00:59:58;;;;;;;2.25;0.57;;;24.50;54.80;;;;;;4940348;29;20031;-72
2021/05/31 01:02:27;;;;;;;0.45;0.30;;;24.90;53.20;;;;;;4947726;28;20106;-73
2021/05/31 01:04:54;;;;;;;1.40;0.55;;;25.40;52.40;;;;;;4945384;28;20398;-74
2021/05/31 01:07:38;;;;;;;2.97;0.60;;;25.60;51.50;;;;;;4944440;29;20418;-71
2021/05/31 01:10:13;;;;;;;0.30;0.22;;;25.40;52.10;;;;;;4947518;28;20067;-73
2021/05/31 01:12:58;;;;;;;1.65;0.30;;;25.50;53.00;;;;;;4947587;29;20043;-73
2021/05/31 01:15:31;;;;;;;0.82;0.30;;;25.00;50.00;;;;;;4949274;29;20042;-73
2021/05/31 01:18:18;;;;;;;0.57;0.30;;;24.50;49.80;;;;;;4947330;28;20079;-73
2021/05/31 01:21:10;;;;;;;0.95;0.30;;;24.20;55.90;;;;;;4949968;28;20027;-72
2021/05/31 01:23:41;;;;;;;0.93;0.30;;;25.20;57.10;;;;;;4949456;28;20371;-73
2021/05/31 01:26:25;;;;;;;0.80;0.80;;;25.60;53.00;;;;;;4940061;28;20046;-72
2021/05/31 01:29:10;;;;;;;0.57;0.30;;;25.70;49.60;;;;;;4946147;28;20039;-71
2021/05/31 01:31:53;;;;;;;1.25;0.70;;;26.00;51.60;;;;;;4949860;29;20046;-73
2021/05/31 01:34:24;;;;;;;1.25;0.65;;;26.40;50.60;;;;;;4949473;28;20038;-72
2021/05/31 01:37:09;;;;;;;1.17;0.55;;;26.20;48.30;;;;;;4948175;28;20085;-74
2021/05/31 01:39:39;;;;;;;0.47;0.20;;;25.40;52.30;;;;;;4948519;28;20038;-75
2021/05/31 01:42:10;;;;;;;0.82;0.25;;;25.40;52.80;;;;;;4950804;28;20973;-73
2021/05/31 01:44:39;;;;;;;0.80;0.20;;;25.60;48.20;;;;;;4950336;28;20043;-74
2021/05/31 01:47:09;;;;;;;0.60;0.40;;;26.20;48.00;;;;;;4948017;28;20031;-73
2021/05/31 01:49:38;;;;;;;1.95;0.30;;;25.50;47.70;;;;;;4945078;28;20027;-73
2021/05/31 01:52:07;;;;;;;1.60;0.50;;;24.90;50.50;;;;;;4950006;28;20038;-75
2021/05/31 01:54:35;;;;;;;1.20;0.50;;;24.70;51.20;;;;;;4945506;28;20114;-74
2021/05/31 01:57:04;;;;;;;0.43;0.20;;;24.90;49.80;;;;;;4945690;28;22231;-71
2021/05/31 01:59:33;;;;;;;1.65;0.40;;;25.10;48.50;;;;;;4945036;28;20051;-68
2021/05/31 02:02:01;;;;;;;1.75;0.50;;;25.70;51.20;;;;;;4943732;28;20142;-70
2021/05/31 02:04:28;;;;;;;0.85;0.40;;;26.10;49.50;;;;;;4946397;28;20031;-69
2021/05/31 02:06:56;;;;;;;2.08;0.40;;;26.70;48.80;;;;;;4946723;29;20036;-69
2021/05/31 02:09:24;;;;;;;1.45;0.68;;;27.10;48.40;;;;;;4944713;28;20079;-71
2021/05/31 02:12:09;;;;;;;2.72;0.68;;;27.50;46.50;;;;;;4943965;28;20419;-71
2021/05/31 02:15:00;;;;;;;1.70;1.05;;;27.20;45.20;;;;;;4943900;28;20502;-69
2021/05/31 02:17:48;;;;;;;1.23;0.40;;;26.40;46.10;;;;;;4946306;28;20034;-69
2021/05/31 02:20:19;;;;;;;3.67;0.50;;;26.20;48.70;;;;;;4943491;28;20054;-70
2021/05/31 02:22:54;;;;;;;1.92;0.50;;;25.50;47.50;;;;;;4945097;28;20083;-69
2021/05/31 02:25:22;;;;;;;3.35;0.60;;;24.90;47.80;;;;;;4945543;28;20101;-71
2021/05/31 02:27:52;;;;;;;0.57;0.30;;;25.20;48.40;;;;;;4946546;28;20075;-71
2021/05/31 02:30:22;;;;;;;0.60;0.40;;;25.30;46.90;;;;;;4947138;28;20512;-69
2021/05/31 02:33:01;;;;;;;0.85;0.38;;;25.00;47.10;;;;;;4946339;28;20043;-70
2021/05/31 02:35:31;;;;;;;1.27;0.60;;;24.70;49.00;;;;;;4947095;28;20031;-70
2021/05/31 02:38:01;;;;;;;1.52;0.60;;;25.30;49.60;;;;;;4945798;28;20035;-69
2021/05/31 02:40:29;;;;;;;1.80;0.30;;;25.70;48.50;;;;;;4948081;28;20086;-68
2021/05/31 02:42:59;;;;;;;0.63;0.30;;;26.10;48.90;;;;;;4927165;29;20020;-70
2021/05/31 02:45:28;;;;;;;1.00;0.20;;;26.20;50.50;;;;;;4945042;28;20038;-72
2021/05/31 02:47:58;;;;;;;1.17;0.38;;;25.60;46.60;;;;;;4943627;28;20031;-71
2021/05/31 02:50:29;;;;;;;0.60;0.25;;;25.60;48.10;;;;;;4944218;28;20134;-71
2021/05/31 02:52:57;;;;;;;1.58;0.28;;;25.50;46.70;;;;;;4945353;28;20501;-69
2021/05/31 02:55:27;;;;;;;1.35;0.45;;;25.70;46.40;;;;;;4945685;28;20575;-72
2021/05/31 02:57:55;;;;;;;0.57;0.40;;;25.80;46.00;;;;;;4944909;28;20477;-73
2021/05/31 03:00:25;;;;;;;1.42;0.25;;;25.20;47.60;;;;;;4944029;28;20051;-73
2021/05/31 03:02:53;;;;;;;4.15;0.90;;;25.30;50.40;;;;;;4942802;28;20059;-71
2021/05/31 03:05:27;;;;;;;3.15;0.43;;;25.40;57.50;;;;;;4944555;28;20038;-72
2021/05/31 03:07:59;;;;;;;0.52;0.20;;;25.20;52.90;;;;;;4944433;28;20030;-73
2021/05/31 03:10:27;;;;;;;51.33;4.95;;;25.20;52.70;;;;;;4944929;28;20054;-73
2021/05/31 03:12:55;;;;;;;1.45;0.30;;;25.00;50.30;;;;;;4943492;28;20031;-69
2021/05/31 03:15:23;;;;;;;1.38;0.65;;;25.00;53.90;;;;;;4944074;28;20046;-73
2021/05/31 03:17:51;;;;;;;0.93;0.55;;;24.50;49.50;;;;;;4944702;28;20053;-72
2021/05/31 03:20:22;;;;;;;1.48;0.90;;;24.20;49.80;;;;;;4942707;28;20027;-72
2021/05/31 03:22:50;;;;;;;4.55;0.40;;;23.90;52.40;;;;;;4941968;28;20755;-71
2021/05/31 03:25:18;;;;;;;3.35;0.85;;;23.90;52.40;;;;;;4943381;28;20019;-71
2021/05/31 03:27:46;;;;;;;1.40;0.40;;;23.60;53.40;;;;;;4943239;28;20060;-71
2021/05/31 03:30:15;;;;;;;2.40;0.43;;;23.60;53.50;;;;;;4942738;28;20409;-72
2021/05/31 03:32:43;;;;;;;0.47;0.28;;;23.40;54.00;;;;;;4945167;28;20039;-71
2021/05/31 03:35:12;;;;;;;1.15;0.73;;;22.50;52.40;;;;;;4943786;28;20406;-70
2021/05/31 03:37:40;;;;;;;0.95;0.30;;;21.80;54.80;;;;;;4942965;28;20039;-72
2021/05/31 03:40:10;;;;;;;3.22;0.60;;;21.60;56.30;;;;;;4942448;28;20058;-71
2021/05/31 03:42:37;;;;;;;1.02;0.40;;;21.30;57.00;;;;;;4943869;28;20447;-72
2021/05/31 03:45:07;;;;;;;7.90;1.73;;;21.00;57.60;;;;;;4942819;28;20027;-72
2021/05/31 03:47:35;;;;;;;5.35;0.75;;;20.80;60.90;;;;;;4944865;28;20047;-72
2021/05/31 03:50:03;;;;;;;1.63;0.82;;;20.70;60.40;;;;;;4944955;28;20039;-72
2021/05/31 03:52:31;;;;;;;1.25;0.77;;;20.70;60.50;;;;;;4944837;28;20083;-71
2021/05/31 03:54:58;;;;;;;2.83;0.55;;;20.60;59.40;;;;;;4944608;28;20031;-71
2021/05/31 03:57:26;;;;;;;1.40;1.08;;;20.50;60.40;;;;;;4942653;28;20091;-71
2021/05/31 03:59:53;;;;;;;1.77;0.80;;;20.30;60.40;;;;;;4930903;28;20051;-71
2021/05/31 04:02:21;;;;;;;2.78;0.52;;;19.90;59.90;;;;;;4944067;28;20050;-71
2021/05/31 04:04:52;;;;;;;4.57;0.63;;;19.70;62.40;;;;;;4942841;28;20061;-71
2021/05/31 04:12:35;;;;;;;0.90;0.50;;;19.50;62.50;;;;;;4943731;28;20038;-70
2021/05/31 04:15:04;;;;;;;7.68;1.20;;;19.50;62.40;;;;;;4939776;28;20073;-70
2021/05/31 04:17:32;;;;;;;10.55;0.98;;;19.40;63.40;;;;;;4944006;29;20386;-70
2021/05/31 04:19:59;;;;;;;1.73;0.50;;;19.50;64.60;;;;;;4945050;28;20036;-73
2021/05/31 04:22:29;;;;;;;1.77;0.50;;;19.50;63.60;;;;;;4944254;29;20055;-70
2021/05/31 04:24:57;;;;;;;1.80;0.63;;;19.40;62.90;;;;;;4946949;28;20035;-71
2021/05/31 04:27:24;;;;;;;6.15;1.05;;;19.40;63.30;;;;;;4945562;29;20024;-71
2021/05/31 04:29:51;;;;;;;6.05;0.70;;;19.30;62.90;;;;;;4945659;29;20036;-70
2021/05/31 04:32:19;;;;;;;1.20;0.70;;;19.20;63.70;;;;;;4942866;28;20516;-71
2021/05/31 04:34:46;;;;;;;1.95;1.30;;;19.10;63.10;;;;;;4941399;28;20130;-71
2021/05/31 04:37:14;;;;;;;3.03;0.82;;;19.10;63.70;;;;;;4943576;28;20031;-72
2021/05/31 04:39:41;;;;;;;1.88;0.47;;;18.90;63.00;;;;;;4943727;28;20394;-71
2021/05/31 04:42:09;;;;;;;1.60;0.88;;;19.00;64.40;;;;;;4942786;28;20035;-73
2021/05/31 04:44:36;;;;;;;5.00;1.10;;;19.00;64.60;;;;;;4945920;28;20042;-72
2021/05/31 04:47:05;;;;;;;0.60;0.25;;;19.00;64.70;;;;;;4943356;28;20030;-70
2021/05/31 04:49:33;;;;;;;4.20;0.50;;;19.00;64.50;;;;;;4945038;28;20508;-73
2021/05/31 04:52:02;;;;;;;1.77;0.40;;;18.80;64.20;;;;;;4942336;28;20027;-74
2021/05/31 04:54:31;;;;;;;1.23;0.50;;;18.80;65.10;;;;;;4943055;28;22233;-72
2021/05/31 04:56:58;;;;;;;0.40;0.30;;;18.80;64.70;;;;;;4943434;28;20058;-72
2021/05/31 04:59:26;;;;;;;2.10;0.50;;;18.80;64.40;;;;;;4945334;28;20039;-72
2021/05/31 05:01:53;;;;;;;1.65;0.40;;;18.70;64.90;;;;;;4942365;28;20047;-76
2021/05/31 05:04:20;;;;;;;1.35;0.30;;;18.60;64.10;;;;;;4943443;28;20610;-75
2021/05/31 05:06:48;;;;;;;0.45;0.30;;;18.40;64.90;;;;;;4949731;28;20037;-79
2021/05/31 05:09:15;;;;;;;6.90;0.88;;;18.40;65.10;;;;;;4948953;28;20038;-74
2021/05/31 05:11:43;;;;;;;2.67;0.50;;;18.30;64.20;;;;;;4947200;28;20126;-79
2021/05/31 05:14:10;;;;;;;2.95;0.40;;;18.30;65.50;;;;;;4950197;28;20386;-78
2021/05/31 05:16:37;;;;;;;3.72;0.82;;;18.30;65.70;;;;;;4946064;28;20114;-77
2021/05/31 05:19:05;;;;;;;1.88;0.50;;;18.20;65.90;;;;;;4944307;28;20055;-76
2021/05/31 05:21:32;;;;;;;0.70;0.45;;;18.30;66.40;;;;;;4944010;28;20111;-75
2021/05/31 05:23:59;;;;;;;2.58;0.38;;;18.30;66.50;;;;;;4945995;28;20027;-75
2021/05/31 05:26:27;;;;;;;2.13;0.47;;;18.30;65.50;;;;;;4930417;28;20035;-76
2021/05/31 05:28:54;;;;;;;1.30;0.40;;;18.20;66.20;;;;;;4944198;28;20122;-75
2021/05/31 05:31:22;;;;;;;2.38;0.50;;;18.30;67.10;;;;;;4944387;28;20524;-74
2021/05/31 05:33:49;;;;;;;2.10;0.30;;;18.30;66.40;;;;;;4946872;28;20031;-75
2021/05/31 05:46:51;;;;;;;1.27;0.40;;;18.30;66.90;;;;;;4945059;28;20086;-75
2021/05/31 05:49:18;;;;;;;2.08;0.38;;;18.30;66.30;;;;;;4947832;28;20035;-76
2021/05/31 05:51:46;;;;;;;4.15;1.73;;;18.30;67.10;;;;;;4948362;28;20098;-76
2021/05/31 05:54:13;;;;;;;1.70;0.50;;;18.40;66.40;;;;;;4945659;28;20090;-75
2021/05/31 05:56:40;;;;;;;1.30;0.40;;;18.40;67.50;;;;;;4947544;28;20689;-75
2021/05/31 05:59:08;;;;;;;2.90;0.50;;;18.50;67.50;;;;;;4945340;28;20023;-75
2021/05/31 06:01:36;;;;;;;2.25;0.50;;;18.60;66.50;;;;;;4947355;28;20042;-75
2021/05/31 06:04:04;;;;;;;3.25;1.00;;;18.60;66.40;;;;;;4946217;28;20057;-75
2021/05/31 06:06:31;;;;;;;2.92;0.80;;;18.70;66.10;;;;;;4944278;28;20031;-75
2021/05/31 06:08:59;;;;;;;4.22;0.50;;;18.80;65.60;;;;;;4945649;28;20032;-75
2021/05/31 06:11:26;;;;;;;3.13;0.52;;;18.80;66.10;;;;;;4945625;28;20387;-76
2021/05/31 06:13:54;;;;;;;2.53;0.98;;;18.90;65.30;;;;;;4946835;28;20054;-75
2021/05/31 06:16:21;;;;;;;1.20;0.70;;;18.90;64.70;;;;;;4944441;28;20027;-76
2021/05/31 06:18:50;;;;;;;0.82;0.30;;;19.00;64.70;;;;;;4946402;28;20450;-76
2021/05/31 06:21:18;;;;;;;7.13;1.52;;;19.00;65.50;;;;;;4946888;28;20023;-76
2021/05/31 06:23:45;;;;;;;1.38;0.73;;;19.00;65.50;;;;;;4945990;28;20473;-77
2021/05/31 06:26:13;;;;;;;4.03;0.93;;;19.00;65.40;;;;;;4948173;28;20035;-76
2021/05/31 06:28:40;;;;;;;3.15;0.73;;;18.90;66.50;;;;;;4948898;28;20073;-77
2021/05/31 06:31:08;;;;;;;2.47;1.00;;;18.80;67.00;;;;;;4947989;28;20398;-76
2021/05/31 06:33:35;;;;;;;1.90;0.25;;;18.60;67.90;;;;;;4948163;28;20016;-76
2021/05/31 06:36:06;;;;;;;3.40;0.40;;;18.30;68.00;;;;;;4945412;28;20027;-77
2021/05/31 06:38:34;;;;;;;1.40;0.60;;;18.20;68.90;;;;;;4946281;28;20028;-77
2021/05/31 06:41:03;;;;;;;3.72;0.60;;;18.00;69.80;;;;;;4944478;28;20062;-76
2021/05/31 06:43:32;;;;;;;5.15;0.93;;;17.80;69.70;;;;;;4944722;28;20066;-77
2021/05/31 06:46:00;;;;;;;1.00;0.47;;;17.70;70.20;;;;;;4949441;28;20027;-73
2021/05/31 06:48:28;;;;;;;2.53;0.60;;;17.50;70.50;;;;;;4944881;28;20357;-72
2021/05/31 06:50:55;;;;;;;1.27;0.55;;;17.40;70.70;;;;;;4951473;28;20067;-72
2021/05/31 06:53:23;;;;;;;2.38;0.70;;;17.20;71.10;;;;;;4945620;28;20027;-73
2021/05/31 06:55:50;;;;;;;1.05;0.43;;;17.10;72.60;;;;;;4946926;28;20473;-71
2021/05/31 06:58:18;;;;;;;1.45;0.75;;;17.00;74.30;;;;;;4941753;28;20039;-71
2021/05/31 07:00:48;;;;;;;4.22;0.60;;;16.80;74.30;;;;;;4946059;29;20047;-70
2021/05/31 07:03:15;;;;;;;3.30;1.35;;;16.70;75.60;;;;;;4944400;28;20045;-72
2021/05/31 07:05:42;;;;;;;3.85;1.38;;;16.50;75.50;;;;;;4939043;29;20502;-71
2021/05/31 07:08:10;;;;;;;5.18;1.85;;;16.40;76.20;;;;;;4943125;28;20496;-70
2021/05/31 07:10:38;;;;;;;5.90;1.95;;;16.30;77.00;;;;;;4946549;28;20114;-70
2021/05/31 07:13:05;;;;;;;3.03;1.13;;;16.30;77.40;;;;;;4941402;28;20039;-74
2021/05/31 07:15:33;;;;;;;2.85;1.83;;;16.20;78.70;;;;;;4948722;29;20037;-70
2021/05/31 07:18:01;;;;;;;2.50;1.80;;;16.10;78.80;;;;;;4945343;28;20102;-72
2021/05/31 07:20:28;;;;;;;3.50;1.08;;;16.00;80.70;;;;;;4948655;29;20552;-72
2021/05/31 07:22:56;;;;;;;6.47;1.40;;;15.80;79.90;;;;;;4943417;29;20036;-72
2021/05/31 07:25:23;;;;;;;3.67;1.50;;;15.70;80.10;;;;;;4946205;29;20051;-71
2021/05/31 07:27:53;;;;;;;3.10;1.33;;;15.60;80.80;;;;;;4949494;28;20541;-71
2021/05/31 07:30:20;;;;;;;1.83;1.08;;;15.50;81.40;;;;;;4947920;28;20043;-72
2021/05/31 07:32:48;;;;;;;7.13;1.42;;;15.40;81.80;;;;;;4945705;29;20349;-73
2021/05/31 07:35:16;;;;;;;5.80;1.30;;;15.30;82.20;;;;;;4947220;29;20034;-71
2021/05/31 07:37:44;;;;;;;6.53;1.40;;;15.20;83.00;;;;;;4941028;28;20035;-71
2021/05/31 07:40:15;;;;;;;3.45;0.98;;;15.10;83.70;;;;;;4945280;28;20535;-71
2021/05/31 07:42:43;;;;;;;2.65;1.55;;;15.00;84.20;;;;;;4942888;28;20031;-71
2021/05/31 07:45:13;;;;;;;3.53;1.85;;;14.90;84.40;;;;;;4944779;28;20023;-71
2021/05/31 07:47:40;;;;;;;3.17;2.03;;;14.90;84.80;;;;;;4943273;28;20035;-72
2021/05/31 07:50:09;;;;;;;3.88;2.22;;;14.80;85.40;;;;;;4942517;28;20037;-71
2021/05/31 07:52:37;;;;;;;3.85;1.77;;;14.70;85.80;;;;;;4942452;28;20023;-70
2021/05/31 07:55:09;;;;;;;2.97;1.50;;;14.70;87.20;;;;;;4941742;28;20041;-72
2021/05/31 07:57:37;;;;;;;3.08;1.70;;;14.60;87.30;;;;;;4944967;28;20046;-71
2021/05/31 08:00:08;;;;;;;5.93;2.28;;;14.50;88.00;;;;;;4941997;28;20382;-68
2021/05/31 08:02:37;;;;;;;4.50;1.98;;;14.40;87.90;;;;;;4941817;28;20023;-68
2021/05/31 08:05:05;;;;;;;4.22;1.67;;;14.30;88.10;;;;;;4942998;28;20045;-68
2021/05/31 08:07:32;;;;;;;4.00;1.75;;;14.20;88.60;;;;;;4940682;28;20050;-71
2021/05/31 08:09:59;;;;;;;4.50;2.17;;;14.10;88.90;;;;;;4943747;28;20046;-71
2021/05/31 08:12:27;;;;;;;5.60;2.20;;;14.00;90.00;;;;;;4944110;28;20031;-69
2021/05/31 08:14:54;;;;;;;5.07;2.20;;;14.00;90.30;;;;;;4944882;28;20034;-73
2021/05/31 08:17:22;;;;;;;3.78;1.70;;;13.90;90.00;;;;;;4943445;28;20039;-70
2021/05/31 08:19:49;;;;;;;7.20;3.20;;;13.80;90.20;;;;;;4942572;28;20043;-73
2021/05/31 08:22:17;;;;;;;4.30;2.50;;;13.70;90.40;;;;;;4940150;28;20119;-73
2021/05/31 08:24:44;;;;;;;11.18;3.47;;;13.60;90.60;;;;;;4950803;29;20019;-70
2021/05/31 08:27:11;;;;;;;6.85;3.03;;;13.60;90.80;;;;;;4944094;29;20555;-73
2021/05/31 08:29:39;;;;;;;6.85;4.05;;;13.50;91.20;;;;;;4946877;29;20102;-71
2021/05/31 08:32:06;;;;;;;6.97;3.97;;;13.50;91.40;;;;;;4942349;29;20036;-73
2021/05/31 08:34:34;;;;;;;7.72;3.53;;;13.40;91.40;;;;;;4946247;28;20023;-71
2021/05/31 08:37:02;;;;;;;6.43;3.38;;;13.30;91.60;;;;;;4952049;29;20031;-71
2021/05/31 08:39:29;;;;;;;4.43;1.95;;;13.30;91.50;;;;;;4942532;28;20035;-72
2021/05/31 08:41:58;;;;;;;15.20;5.78;;;13.20;91.50;;;;;;4938729;28;20032;-70
2021/05/31 08:44:26;;;;;;;11.88;4.15;;;13.10;91.40;;;;;;4947569;28;20030;-73
2021/05/31 08:46:54;;;;;;;11.32;4.75;;;13.00;91.90;;;;;;4948137;29;20031;-70
2021/05/31 08:49:24;;;;;;;10.95;4.10;;;12.80;92.30;;;;;;4945321;29;20047;-71
2021/05/31 08:51:52;;;;;;;8.35;4.20;;;12.80;92.40;;;;;;4949577;28;20331;-71
2021/05/31 08:54:19;;;;;;;7.85;3.88;;;12.80;92.50;;;;;;4944906;28;20344;-70
2021/05/31 08:56:46;;;;;;;8.95;2.85;;;12.80;92.80;;;;;;4948342;29;20433;-71
2021/05/31 08:59:14;;;;;;;7.82;3.70;;;12.80;92.70;;;;;;4942093;28;20027;-72
2021/05/31 09:01:41;;;;;;;4.70;2.13;;;12.70;92.60;;;;;;4944925;28;20422;-69
2021/05/31 09:04:14;;;;;;;7.15;2.97;;;12.70;92.70;;;;;;4949540;29;20027;-72
2021/05/31 09:06:53;;;;;;;11.45;3.40;;;12.70;93.00;;;;;;4944768;29;20034;-69
2021/05/31 09:09:21;;;;;;;6.28;2.25;;;12.70;92.80;;;;;;4947043;28;20474;-71
2021/05/31 09:11:56;;;;;;;4.70;2.55;;;12.70;92.90;;;;;;4950241;29;20039;-73
2021/05/31 09:14:25;;;;;;;6.60;2.47;;;12.60;93.00;;;;;;4943198;28;20020;-70
2021/05/31 09:16:53;;;;;;;7.90;2.17;;;12.60;93.00;;;;;;4945063;29;20078;-71
2021/05/31 09:19:21;;;;;;;4.05;2.08;;;12.60;93.30;;;;;;4944590;28;20027;-71
2021/05/31 09:21:49;;;;;;;6.38;1.98;;;12.50;93.20;;;;;;4943727;29;20414;-71
2021/05/31 09:24:22;;;;;;;4.43;2.20;;;12.50;93.20;;;;;;4946104;28;20032;-72
2021/05/31 09:27:01;;;;;;;8.00;1.73;;;12.50;93.40;;;;;;4943882;29;20111;-71
2021/05/31 09:29:29;;;;;;;5.63;1.60;;;12.40;93.30;;;;;;4931263;28;20053;-72
2021/05/31 09:32:02;;;;;;;4.68;1.42;;;12.30;93.40;;;;;;4948785;29;20039;-71
2021/05/31 09:34:29;;;;;;;3.05;1.45;;;12.30;93.50;;;;;;4924181;29;20038;-70
2021/05/31 09:37:01;;;;;;;4.00;1.70;;;12.20;93.90;;;;;;4940587;29;20038;-70
2021/05/31 09:39:34;;;;;;;6.15;2.28;;;12.20;93.90;;;;;;4941456;28;20042;-71
2021/05/31 09:42:12;;;;;;;6.82;3.17;;;12.10;94.00;;;;;;4946863;28;20245;-71
2021/05/31 09:44:44;;;;;;;5.35;1.88;;;12.10;94.20;;;;;;4948701;29;20035;-71
2021/05/31 09:47:13;;;;;;;4.22;1.58;;;12.10;94.20;;;;;;4949264;29;20236;-71
2021/05/31 09:49:40;;;;;;;3.92;1.70;;;12.00;94.20;;;;;;4943851;28;20031;-70
2021/05/31 09:52:09;;;;;;;6.53;2.03;;;12.00;94.30;;;;;;4945546;28;20086;-71
2021/05/31 09:54:38;;;;;;;7.45;2.35;;;12.00;94.60;;;;;;4948956;28;20027;-70
2021/05/31 09:57:38;;;;;;;7.35;3.35;;;12.00;94.60;;;;;;4947164;28;20564;-72
2021/05/31 10:00:19;;;;;;;6.13;2.22;;;12.00;94.80;;;;;;4927217;29;20103;-70
2021/05/31 10:02:55;;;;;;;;;;;;;;;;;;;;;
2021/05/31 10:10:40;;;;;;;5.50;1.48;;;11.80;95.10;;;;;;4921145;29;20043;-69
2021/05/31 10:13:07;;;;;;;3.13;1.70;;;11.70;95.10;;;;;;4951720;28;20031;-70
2021/05/31 10:15:41;;;;;;;6.32;1.33;;;11.60;95.10;;;;;;4942221;28;20032;-70
2021/05/31 10:18:15;;;;;;;4.43;1.60;;;11.60;95.30;;;;;;4947972;29;20031;-71
2021/05/31 10:20:43;;;;;;;5.28;1.45;;;11.60;95.40;;;;;;4947917;29;20050;-71
2021/05/31 10:23:12;;;;;;;6.82;2.60;;;11.50;95.40;;;;;;4948995;28;20015;-69
2021/05/31 10:25:44;;;;;;;9.45;2.45;;;11.40;95.50;;;;;;4944107;28;20094;-72
2021/05/31 10:28:24;;;;;;;4.50;2.50;;;11.40;95.60;;;;;;4947319;28;20501;-70
2021/05/31 10:30:58;;;;;;;4.78;3.00;;;11.30;95.70;;;;;;4952069;29;20038;-72
2021/05/31 10:33:25;;;;;;;8.70;3.65;;;11.30;95.70;;;;;;4950267;29;20401;-70
2021/05/31 10:35:57;;;;;;;7.43;3.92;;;11.20;96.00;;;;;;4947926;29;20030;-72
2021/05/31 10:38:31;;;;;;;16.48;5.45;;;11.30;96.20;;;;;;4947807;28;20038;-69
2021/05/31 10:40:58;;;;;;;13.93;6.50;;;11.30;96.20;;;;;;4949425;29;20107;-71
2021/05/31 10:43:26;;;;;;;13.30;7.22;;;11.30;96.10;;;;;;4948245;28;20042;-69
2021/05/31 10:46:05;;;;;;;15.15;5.85;;;11.30;96.20;;;;;;4945581;28;20034;-71
2021/05/31 10:48:51;;;;;;;11.95;6.15;;;11.30;96.20;;;;;;4950303;29;20097;-69
2021/05/31 10:51:31;;;;;;;12.13;6.83;;;11.30;96.30;;;;;;4948443;28;20046;-72
2021/05/31 10:54:13;;;;;;;13.38;7.00;;;11.20;96.20;;;;;;4949863;28;20031;-71
2021/05/31 10:56:44;;;;;;;10.98;5.90;;;11.20;96.30;;;;;;4944030;29;20023;-71
2021/05/31 10:59:20;;;;;;;10.20;6.25;;;11.20;96.30;;;;;;4943843;29;20043;-70
2021/05/31 11:01:47;;;;;;;10.63;5.73;;;11.10;96.20;;;;;;4945295;28;20031;-72
2021/05/31 11:04:22;;;;;;;9.93;5.68;;;11.10;96.10;;;;;;4941394;28;20114;-70
2021/05/31 11:06:52;;;;;;;12.18;6.07;;;11.00;96.10;;;;;;4947046;28;20020;-73
2021/05/31 11:09:29;;;;;;;12.50;5.20;;;11.00;96.10;;;;;;4942189;28;20075;-71
2021/05/31 11:12:00;;;;;;;10.23;6.03;;;10.90;96.00;;;;;;4944713;28;20107;-72
2021/05/31 11:14:37;;;;;;;10.57;5.65;;;10.70;96.00;;;;;;4951656;28;20117;-74
2021/05/31 11:17:09;;;;;;;7.13;4.35;;;10.70;96.20;;;;;;4944927;29;20114;-74
2021/05/31 11:19:41;;;;;;;13.18;4.13;;;10.60;95.80;;;;;;4949936;28;20078;-74
2021/05/31 11:22:21;;;;;;;7.93;4.50;;;10.60;96.30;;;;;;4944058;28;20031;-72
2021/05/31 11:25:08;;;;;;;9.52;3.58;;;10.50;95.70;;;;;;4951504;28;20027;-72
2021/05/31 11:27:37;;;;;;;7.72;2.90;;;10.40;95.90;;;;;;4945349;29;20019;-73
2021/05/31 11:30:07;;;;;;;6.80;3.72;;;10.30;95.90;;;;;;4948002;28;20047;-73
2021/05/31 11:32:36;;;;;;;8.38;3.50;;;10.20;96.00;;;;;;4944484;28;20027;-72
2021/05/31 11:35:06;;;;;;;9.70;4.00;;;10.20;96.00;;;;;;4951835;29;20036;-72
2021/05/31 11:37:34;;;;;;;8.18;3.75;;;10.10;96.10;;;;;;4947707;29;20023;-72
2021/05/31 11:40:04;;;;;;;6.97;3.92;;;10.00;96.30;;;;;;4950344;28;20038;-72
2021/05/31 11:42:33;;;;;;;8.05;4.00;;;10.00;96.40;;;;;;4941642;29;20042;-69
2021/05/31 11:45:02;;;;;;;8.48;2.97;;;9.90;96.50;;;;;;4948112;28;20626;-73
2021/05/31 11:47:30;;;;;;;7.57;3.40;;;10.00;96.80;;;;;;4946225;28;20039;-73
2021/05/31 11:49:59;;;;;;;7.63;3.60;;;10.00;96.70;;;;;;4948559;28;20167;-73
2021/05/31 11:52:28;;;;;;;10.23;4.10;;;10.00;96.80;;;;;;4949857;29;20526;-73
2021/05/31 11:54:55;;;;;;;8.30;3.97;;;10.00;97.00;;;;;;4943808;28;20086;-72
2021/05/31 11:57:25;;;;;;;8.15;3.72;;;10.00;96.80;;;;;;4946699;29;20496;-74
2021/05/31 11:59:57;;;;;;;15.43;4.28;;;10.00;96.90;;;;;;4934949;28;20096;-74
2021/05/31 12:02:28;;;;;;;10.02;4.32;;;10.10;97.40;;;;;;4921822;29;20035;-74
2021/05/31 12:04:56;;;;;;;7.38;3.50;;;10.10;97.70;;;;;;4923101;29;20028;-74
2021/05/31 12:07:25;;;;;;;7.00;4.35;;;10.20;97.70;;;;;;4925696;29;20526;-71
2021/05/31 12:09:53;;;;;;;7.45;3.35;;;10.20;98.10;;;;;;4924972;29;20042;-71
2021/05/31 12:12:23;;;;;;;4.85;3.00;;;10.20;98.30;;;;;;4925601;29;20043;-72
2021/05/31 12:14:56;;;;;;;6.63;3.80;;;10.20;98.40;;;;;;4924870;29;20034;-72
2021/05/31 12:17:28;;;;;;;8.63;4.10;;;10.20;98.50;;;;;;4926164;29;20032;-73
2021/05/31 12:19:57;;;;;;;7.40;4.68;;;10.10;98.70;;;;;;4931007;29;20023;-73
2021/05/31 12:22:30;;;;;;;7.28;4.60;;;10.00;98.60;;;;;;4935751;29;20028;-73
2021/05/31 12:25:00;;;;;;;7.75;3.90;;;10.00;98.60;;;;;;4925426;29;20027;-72
2021/05/31 12:27:33;;;;;;;6.60;4.03;;;10.00;98.70;;;;;;4926496;29;20038;-73
2021/05/31 12:30:01;;;;;;;6.78;4.40;;;10.00;98.70;;;;;;4923406;29;20601;-73
2021/05/31 12:32:29;;;;;;;9.90;4.22;;;10.00;98.70;;;;;;4924347;29;20035;-74
2021/05/31 12:34:57;;;;;;;10.45;3.78;;;10.00;98.80;;;;;;4927617;29;20422;-71
2021/05/31 12:37:36;;;;;;;5.45;3.88;;;9.90;98.80;;;;;;4924316;29;20019;-73
2021/05/31 12:40:12;;;;;;;4.90;2.88;;;9.90;98.90;;;;;;4908188;29;20028;-72
2021/05/31 12:42:40;;;;;;;8.57;2.90;;;9.80;99.00;;;;;;4926246;29;20027;-73
2021/05/31 12:45:19;;;;;;;5.25;2.92;;;9.80;99.30;;;;;;4925643;29;20036;-74
2021/05/31 12:47:51;;;;;;;5.40;2.42;;;9.80;99.10;;;;;;4930565;29;20034;-74
2021/05/31 12:50:37;;;;;;;3.13;1.95;;;9.80;99.10;;;;;;4921347;29;20040;-74
2021/05/31 12:53:09;;;;;;;4.47;1.87;;;9.80;99.20;;;;;;4924435;29;20032;-73
2021/05/31 12:55:38;;;;;;;4.82;1.80;;;9.80;98.80;;;;;;4928663;29;20361;-74
2021/05/31 12:58:23;;;;;;;4.75;2.17;;;9.80;99.00;;;;;;4928326;29;20377;-73
2021/05/31 13:00:51;;;;;;;5.47;2.85;;;9.80;98.50;;;;;;4944103;29;20059;-70
2021/05/31 13:03:21;;;;;;;5.13;2.60;;;9.70;98.50;;;;;;4917191;28;20138;-71
2021/05/31 13:05:52;;;;;;;6.30;3.42;;;9.60;98.30;;;;;;4943356;28;20066;-71
2021/05/31 13:08:21;;;;;;;5.90;3.05;;;9.40;97.80;;;;;;4937994;28;20517;-70
2021/05/31 13:10:57;;;;;;;9.23;3.20;;;9.30;98.00;;;;;;4941556;29;20043;-71
2021/05/31 13:13:34;;;;;;;;;;;9.30;97.90;;;;;;4942929;29;20020;-70
2021/05/31 13:16:08;;;;;;;6.13;3.55;;;9.10;98.10;;;;;;4943248;29;19915;-70
2021/05/31 13:18:43;;;;;;;5.10;2.80;;;9.10;98.20;;;;;;4943501;28;20159;-70
2021/05/31 13:21:16;;;;;;;5.30;3.87;;;9.00;98.10;;;;;;4941510;28;20089;-70
2021/05/31 13:23:45;;;;;;;5.55;3.40;;;8.90;98.20;;;;;;4942718;28;20555;-71